Flight Track Log - Related Links

Times and Time Zones

All times are in EDT time to prevent confusion due to time zone crossing. See the CPZ5718 flight status page for this flight to view local times or setup timezone preferences in your user account.

Time Position Orientation Groundspeed Altitude Reporting Facility
EDT Latitude Longitude Course Direction KTS MPH feet Rate Location/Type
Wed 06:40:40 AM 42.7653 -73.8061 281° West 143 165 1,100  Level Boston Center
Wed 06:41:35 AM 42.8003 -73.8381 326° Northwest 190 219 2,600 2,328 Climbing Boston Center
Wed 06:42:36 AM 42.8453 -73.9125 310° West 267 307 5,600 3,099 Climbing Boston Center
Wed 06:43:00 AM 42.8363 -74.3512 283° West  Level FlightAware Approximate
Wed 06:43:06 AM 42.8697 -73.9417 319° Northwest 266 306 7,300  Level Boston Center
Wed 06:44:00 AM 42.8597 -74.4916 283° West  Level FlightAware Approximate
Wed 06:44:06 AM 42.9169 -74.0050 316° Northwest 266 306 9,700  Level Boston Center
Wed 06:45:00 AM 42.8932 -74.6217 281° West  Level FlightAware Approximate
Wed 06:45:06 AM 42.9783 -74.0861 316° Northwest 279 321 11,700  Level Boston Center
Wed 06:46:06 AM 43.0167 -74.1781 300° West 293 337 13,900 1,800 Climbing Boston Center
Wed 06:47:06 AM 43.0267 -74.3203 276° West 329 379 15,300 1,700 Climbing Boston Center
Wed 06:48:06 AM 43.0372 -74.4456 277° West 363 418 17,300 2,000 Climbing Boston Center
Wed 06:49:06 AM 43.0489 -74.6050 276° West 385 443 19,300 1,950 Climbing Boston Center
Wed 06:50:06 AM 43.0606 -74.7533 276° West 391 450 21,200 1,500 Climbing Boston Center
Wed 06:51:06 AM 43.0703 -74.8844 276° West 391 450 22,300 1,250 Climbing Boston Center
Wed 06:52:06 AM 43.0814 -75.0383 276° West 403 464 23,700 1,350 Climbing Boston Center
Wed 06:53:06 AM 43.0925 -75.1953 276° West 409 471 25,000 1,250 Climbing Boston Center
Wed 06:54:06 AM 43.1050 -75.3550 276° West 415 478 26,200 1,050 Climbing Boston Center
Wed 06:55:06 AM 43.1197 -75.5153 277° West 425 489 27,100 900 Climbing Boston Center
Wed 06:56:06 AM 43.1464 -75.6758 283° West 430 495 28,000 800 Climbing Boston Center
Wed 06:57:06 AM 43.1731 -75.8367 283° West 430 495 28,700 1,050 Climbing Boston Center
Wed 06:58:06 AM 43.2014 -75.9981 284° West 430 495 30,100 1,200 Climbing Boston Center
Wed 06:59:06 AM 43.2278 -76.1506 283° West 430 495 31,100 1,013 Climbing Boston Center
Wed 07:00:46 AM 43.2667 -76.4089 282° West 433 498 32,800 938 Climbing Cleveland Center
Wed 07:01:46 AM 43.2950 -76.5611 284° West 421 484 33,600 900 Climbing Cleveland Center
Wed 07:02:46 AM 43.3208 -76.7078 284° West 415 478 34,600 1,000 Climbing Cleveland Center
Wed 07:03:46 AM 43.3422 -76.8550 281° West 405 466 35,600 700 Climbing Cleveland Center
Wed 07:04:46 AM 43.3675 -76.9992 284° West 400 460 36,000 200 Climbing Cleveland Center
Wed 07:05:46 AM 43.3867 -77.1439 280° West 394 453 36,000  Level Cleveland Center
Wed 07:06:46 AM 43.4119 -77.2967 283° West 394 453 36,000  Level Cleveland Center
Wed 07:07:36 AM 43.4333 -77.4000 286° West 420 483 36,000  Level Toronto Center
Wed 07:08:36 AM 43.4500 -77.5833 277° West 420 483 36,000  Level Toronto Center
Wed 07:09:36 AM 43.4667 -77.7333 279° West 420 483 36,000  Level Toronto Center
Wed 07:10:36 AM 43.5000 -77.8833 287° West 420 483 36,000  Level Toronto Center
Wed 07:11:36 AM 43.5167 -78.0500 278° West 420 483 36,000  Level Toronto Center
Wed 07:12:46 AM 43.5536 -78.2458 285° West 430 495 36,000  Level Cleveland Center
Wed 07:13:46 AM 43.5775 -78.4056 282° West 430 495 36,000  Level Cleveland Center
Wed 07:14:46 AM 43.6014 -78.5625 282° West 430 495 36,000  Level Cleveland Center
Wed 07:15:36 AM 43.6167 -78.6833 280° West 430 495 36,000  Level Toronto Center
Wed 07:16:36 AM 43.6333 -78.8500 278° West 430 495 36,000  Level Toronto Center
Wed 07:17:36 AM 43.6667 -79.0167 286° West 430 495 36,000  Level Toronto Center
Wed 07:18:36 AM 43.6833 -79.1667 279° West 430 495 36,000  Level Toronto Center
Wed 07:19:36 AM 43.7000 -79.3333 278° West 430 495 36,000  Level Toronto Center
Wed 07:20:36 AM 43.7167 -79.5000 278° West 420 483 36,000  Level Toronto Center
Wed 07:21:36 AM 43.7500 -79.6500 287° West 430 495 36,000  Level Toronto Center
Wed 07:22:36 AM 43.7667 -79.8167 278° West 430 495 36,000  Level Toronto Center
Wed 07:23:36 AM 43.7833 -79.9833 278° West 430 495 36,000  Level Toronto Center
Wed 07:24:36 AM 43.8167 -80.1333 287° West 430 495 36,000  Level Toronto Center
Wed 07:25:36 AM 43.8333 -80.3000 278° West 420 483 36,000  Level Toronto Center
Wed 07:26:36 AM 43.8500 -80.4667 278° West 420 483 36,000  Level Toronto Center
Wed 07:27:36 AM 43.8667 -80.6333 278° West 420 483 36,000  Level Toronto Center
Wed 07:28:36 AM 43.9000 -80.7833 287° West 420 483 36,000  Level Toronto Center
Wed 07:29:36 AM 43.9000 -80.9500 270° West 420 483 36,000  Level Toronto Center
Wed 07:30:36 AM 43.9167 -81.1167 278° West 420 483 36,000  Level Toronto Center
Wed 07:31:36 AM 43.9333 -81.2833 278° West 420 483 36,000  Level Toronto Center
Wed 07:32:36 AM 43.9667 -81.4333 287° West 420 483 36,000  Level Toronto Center
Wed 07:33:36 AM 43.9833 -81.5833 279° West 420 483 36,000  Level Toronto Center
Wed 07:34:36 AM 44.0000 -81.7500 278° West 420 483 36,000  Level Toronto Center
Wed 07:35:36 AM 44.0167 -81.9000 279° West 420 483 36,000  Level Toronto Center
Wed 07:36:36 AM 44.0333 -82.0667 278° West 420 483 36,000  Level Toronto Center
Wed 07:37:36 AM 44.0500 -82.2333 278° West 420 483 36,000  Level Toronto Center
Wed 07:38:36 AM 44.0667 -82.4000 278° West 420 483 36,000  Level Toronto Center
Wed 07:39:36 AM 44.1000 -82.5500 287° West 420 483 36,000  Level Toronto Center
Wed 07:40:19 AM 44.1078 -82.6800 275° West 423 487 36,000  Level Minneapolis Center
Wed 07:41:20 AM 44.1258 -82.8422 279° West 424 488 36,000  Level Minneapolis Center
Wed 07:42:21 AM 44.1417 -83.0064 278° West 427 491 36,000  Level Minneapolis Center
Wed 07:43:22 AM 44.1586 -83.1683 278° West 426 490 36,000  Level Minneapolis Center
Wed 07:44:23 AM 44.1758 -83.3311 278° West 425 489 36,000  Level Minneapolis Center
Wed 07:45:24 AM 44.1917 -83.4944 278° West 427 491 36,000  Level Minneapolis Center
Wed 07:46:26 AM 44.2078 -83.6561 278° West 425 489 36,000  Level Minneapolis Center
Wed 07:47:27 AM 44.2236 -83.8175 278° West 422 486 36,000  Level Minneapolis Center
Wed 07:48:28 AM 44.2383 -83.9769 277° West 418 481 36,000  Level Minneapolis Center
Wed 07:49:30 AM 44.2567 -84.1661 278° West 412 474 36,000  Level Minneapolis Center
Wed 07:50:31 AM 44.2711 -84.3233 277° West 410 472 36,000  Level Minneapolis Center
Wed 07:51:32 AM 44.2839 -84.4817 276° West 411 473 36,000  Level Minneapolis Center
Wed 07:52:34 AM 44.3000 -84.6408 278° West 414 476 36,000  Level Minneapolis Center
Wed 07:53:35 AM 44.3139 -84.8000 277° West 415 478 36,000  Level Minneapolis Center
Wed 07:54:36 AM 44.3264 -84.9581 276° West 412 474 36,000  Level Minneapolis Center
Wed 07:55:38 AM 44.3408 -85.1169 277° West 413 475 36,000  Level Minneapolis Center
Wed 07:56:39 AM 44.3533 -85.2747 276° West 410 472 36,000  Level Minneapolis Center
Wed 07:57:41 AM 44.3658 -85.4333 276° West 410 472 36,000  Level Minneapolis Center
Wed 07:58:42 AM 44.3786 -85.5906 277° West 409 471 36,000  Level Minneapolis Center
Wed 07:59:43 AM 44.3936 -85.7794 276° West 405 466 36,000  Level Minneapolis Center
Wed 08:00:45 AM 44.4056 -85.9361 276° West 404 465 36,000  Level Minneapolis Center
Wed 08:01:46 AM 44.4178 -86.0922 276° West 403 464 36,000  Level Minneapolis Center
Wed 08:02:48 AM 44.4292 -86.2497 276° West 403 464 36,000  Level Minneapolis Center
Wed 08:03:49 AM 44.4406 -86.4061 276° West 402 463 36,000  Level Minneapolis Center
Wed 08:04:51 AM 44.4517 -86.5622 276° West 403 464 36,000  Level Minneapolis Center
Wed 08:05:52 AM 44.4622 -86.7186 275° West 402 463 36,000  Level Minneapolis Center
Wed 08:06:54 AM 44.4731 -86.8731 276° West 400 460 36,000  Level Minneapolis Center
Wed 08:07:55 AM 44.4831 -87.0281 275° West 400 460 36,000  Level Minneapolis Center
Wed 08:09:09 AM 44.4933 -87.1847 275° West 402 463 36,000  Level Minneapolis Center
Wed 08:10:10 AM 44.5058 -87.3725 275° West 403 464 36,000  Level Minneapolis Center
Wed 08:11:12 AM 44.5178 -87.5600 275° West 403 464 36,000  Level Minneapolis Center
Wed 08:12:13 AM 44.5272 -87.7150 275° West 400 460 36,000  Level Minneapolis Center
Wed 08:13:15 AM 44.5361 -87.8697 275° West 400 460 36,000  Level Minneapolis Center
Wed 08:14:17 AM 44.5422 -88.0200 273° West 398 458 36,000  Level Minneapolis Center
Wed 08:15:18 AM 44.5364 -88.1811 267° West 411 473 36,000  Level Minneapolis Center
Wed 08:16:20 AM 44.5297 -88.3681 267° West 412 474 36,000  Level Minneapolis Center
Wed 08:17:22 AM 44.5247 -88.5289 268° West 414 476 36,000  Level Minneapolis Center
Wed 08:18:35 AM 44.5450 -88.6836 280° West 407 468 36,000  Level Minneapolis Center
Wed 08:19:37 AM 44.5708 -88.8656 281° West 406 467 36,000  Level Minneapolis Center
Wed 08:20:39 AM 44.5914 -89.0250 280° West 412 474 36,000  Level Minneapolis Center
Wed 08:21:53 AM 44.6147 -89.2086 280° West 412 474 36,000 -265 Level Minneapolis Center
Wed 08:22:55 AM 44.6403 -89.3911 281° West 410 472 35,400 -774 Descending Minneapolis Center
Wed 08:23:57 AM 44.6617 -89.5497 281° West 414 476 34,400 -968 Descending Minneapolis Center
Wed 08:24:59 AM 44.6836 -89.7161 281° West 430 495 33,400 -1,024 Descending Minneapolis Center
Wed 08:26:00 AM 44.7083 -89.9131 280° West 438 504 32,300 -683 Descending Minneapolis Center
Wed 08:27:02 AM 44.7228 -90.0258 280° West 439 505 32,000 -145 Descending Minneapolis Center
Wed 08:28:04 AM 44.7508 -90.2511 280° West 440 506 32,000  Level Minneapolis Center
Wed 08:29:06 AM 44.7719 -90.4239 280° West 446 513 32,000  Level Minneapolis Center
Wed 08:30:08 AM 44.7986 -90.6006 282° West 443 510 32,000  Level Minneapolis Center
Wed 08:31:10 AM 44.8261 -90.7697 283° West 446 513 32,000  Level Minneapolis Center
Wed 08:32:11 AM 44.8511 -90.9406 282° West 447 514 32,000  Level Minneapolis Center
Wed 08:33:13 AM 44.8769 -91.1108 282° West 447 514 32,000 -1,147 Level Minneapolis Center
Wed 08:34:27 AM 44.9075 -91.3178 282° West 448 516 29,400 -2,868 Descending Minneapolis Center
Wed 08:35:29 AM 44.9375 -91.5208 282° West 447 514 25,500 -3,339 Descending Minneapolis Center
Wed 08:36:31 AM 44.9614 -91.6786 282° West 427 491 22,500 -2,855 Descending Minneapolis Center
Wed 08:37:33 AM 44.9836 -91.8275 282° West 396 456 19,600 -2,710 Descending Minneapolis Center
Wed 08:38:35 AM 45.0050 -91.9703 282° West 377 434 16,900 -2,565 Descending Minneapolis Center
Wed 08:39:37 AM 45.0239 -92.1064 281° West 358 412 14,300 -2,758 Descending Minneapolis Center
Wed 08:40:39 AM 45.0464 -92.2714 281° West 359 413 11,200 -1,645 Descending Minneapolis Center
Wed 08:41:41 AM 45.0308 -92.4044 261° West 348 400 10,900 -629 Descending Minneapolis Center
Wed 08:42:43 AM 44.9911 -92.5103 242° Southwest 301 346 9,900 -1,161 Descending Minneapolis Center
Wed 08:43:45 AM 44.9453 -92.5972 233° Southwest 280 322 8,500 -1,161 Descending Minneapolis Center
Wed 08:44:47 AM 44.9000 -92.6847 234° Southwest 277 319 7,500 -871 Descending Minneapolis Center
Wed 08:45:49 AM 44.8569 -92.7733 236° Southwest 275 316 6,700 -1,548 Descending Minneapolis Center
Wed 08:46:51 AM 44.8214 -92.8867 246° West 265 305 4,300 -1,790 Descending Minneapolis Center
Wed 08:47:53 AM 44.8242 -92.9789 272° West 239 275 3,000 -1,258 Descending Minneapolis Center

Login

Don't have an account? Register now (free) for customized features, flight alerts, and more!